Terminal Aerodrome Forecast
Issued by NWS

Current Version | Previous Version | Graphics & Text | Print | Product List | Glossary On
Versions: 1 2 3 4 5 6 7 8 9 10 11 12 13 14 15 16 17 18 19 20 21
000
FTUS41 KILN 312050 AAA
TAFLUK
TAF AMD
KLUK 312050Z 3121/0118 23006KT P6SM VCTS BKN045CB
     FM010100 00000KT P6SM SCT250
     FM010400 00000KT 3SM BR SKC
     FM010700 00000KT 1SM BR SCT002
      TEMPO 0108/0112 1/4SM FG VV002
     FM011300 00000KT 2SM BR SCT250
     FM011400 00000KT P6SM SCT028=

USA.gov is the U.S. government's official web portal to all federal, state and local government web resources and services.